Time;durP1;ratioP1;P1;durP2;ratioP2;P2;SDS_P1;SDS_P2;PMS_P1;PMS_P2;Temp;Humidity;BMP_temperature;BMP_pressure;BME280_temperature;BME280_humidity;BME280_pressure;Samples;Min_cycle;Max_cycle;Signal;HPM_P1;HPM_P2
2021/04/17 00:01:57;;;;;;;3.60;1.88;;;;;;;7.57;66.17;101948.06;4982969;28;20450;-80
2021/04/17 00:04:24;;;;;;;5.47;2.13;;;;;;;7.70;64.87;101947.22;4996382;28;20080;-80
2021/04/17 00:06:50;;;;;;;7.60;3.47;;;;;;;7.74;64.85;101957.00;5017605;28;20124;-80
2021/04/17 00:09:20;;;;;;;8.98;2.28;;;;;;;7.77;64.88;101948.38;4979914;28;20050;-81
2021/04/17 00:11:47;;;;;;;4.90;2.20;;;;;;;7.68;65.74;101954.78;5016542;28;20389;-81
2021/04/17 00:14:26;;;;;;;4.82;2.20;;;;;;;7.89;64.04;101947.84;4998961;28;20026;-80
2021/04/17 00:16:52;;;;;;;6.05;2.05;;;;;;;7.76;65.09;101948.69;4999651;28;20099;-81
2021/04/17 00:19:17;;;;;;;5.22;2.13;;;;;;;7.76;65.72;101943.34;4997227;28;20398;-81
2021/04/17 00:21:43;;;;;;;3.20;2.30;;;;;;;7.72;67.13;101939.66;5016965;28;20034;-80
2021/04/17 00:24:09;;;;;;;3.00;2.05;;;;;;;7.92;64.99;101923.09;5017149;28;20030;-81
2021/04/17 00:26:35;;;;;;;6.13;2.40;;;;;;;8.28;62.33;101925.72;4984685;28;20042;-80
2021/04/17 00:29:03;;;;;;;5.63;2.63;;;;;;;8.33;61.69;101923.69;5013190;28;20042;-80
2021/04/17 00:31:29;;;;;;;8.15;2.55;;;;;;;8.32;62.08;101924.81;5016627;28;20029;-80
2021/04/17 00:33:54;;;;;;;8.20;2.92;;;;;;;8.38;62.06;101923.53;5012699;28;20034;-79
2021/04/17 00:36:20;;;;;;;8.05;2.60;;;;;;;8.07;64.23;101930.78;5016523;28;20525;-79
2021/04/17 00:38:46;;;;;;;8.60;2.30;;;;;;;7.73;66.52;101933.19;4998866;28;20026;-80
2021/04/17 00:41:11;;;;;;;3.35;2.45;;;;;;;7.85;65.67;101933.44;5006521;28;20593;-79
2021/04/17 00:43:36;;;;;;;9.02;2.72;;;;;;;7.95;65.15;101927.84;4998619;28;20089;-80
2021/04/17 00:46:02;;;;;;;5.93;2.58;;;;;;;8.02;64.84;101931.69;5016070;28;20034;-80
2021/04/17 00:48:28;;;;;;;8.15;2.63;;;;;;;7.89;64.93;101937.13;5015481;28;20029;-79
2021/04/17 00:50:53;;;;;;;6.18;2.83;;;;;;;7.90;64.60;101938.69;5009043;28;20054;-81
2021/04/17 00:53:20;;;;;;;7.15;2.92;;;;;;;7.76;65.71;101938.75;4997883;28;20038;-81
2021/04/17 00:55:48;;;;;;;6.43;2.88;;;;;;;7.30;67.34;101935.50;4997890;28;20052;-80
2021/04/17 00:58:13;;;;;;;6.07;2.72;;;;;;;7.22;67.39;101931.66;5014560;28;20116;-81
2021/04/17 01:00:39;;;;;;;7.03;2.65;;;;;;;7.29;67.91;101931.25;4982865;28;20081;-80
2021/04/17 01:03:18;;;;;;;6.97;2.70;;;;;;;7.29;67.02;101929.38;5029868;23;20050;-70
2021/04/17 01:05:46;;;;;;;5.95;2.70;;;;;;;7.63;65.56;101923.50;5006513;28;20033;-70
2021/04/17 01:08:24;;;;;;;7.70;2.88;;;;;;;7.80;64.55;101920.94;5008798;28;20048;-70
2021/04/17 01:10:56;;;;;;;6.32;2.83;;;;;;;7.69;64.05;101929.53;4997432;28;20030;-70
2021/04/17 01:13:23;;;;;;;6.53;2.63;;;;;;;7.68;65.03;101927.97;4974867;28;20039;-70
2021/04/17 01:15:51;;;;;;;5.05;2.63;;;;;;;7.56;65.26;101922.34;4993108;28;20106;-70
2021/04/17 01:18:19;;;;;;;6.75;3.13;;;;;;;7.55;65.50;101924.22;4981489;28;20035;-70
2021/04/17 01:20:48;;;;;;;6.82;2.90;;;;;;;7.58;65.11;101928.19;4992314;28;20084;-70
2021/04/17 01:23:39;;;;;;;5.95;2.40;;;;;;;7.56;64.83;101919.66;4973817;28;20089;-69
2021/04/17 01:26:10;;;;;;;9.20;2.85;;;;;;;7.79;64.49;101921.25;4985220;28;20108;-69
2021/04/17 01:28:42;;;;;;;9.70;2.83;;;;;;;7.75;64.75;101925.66;4991150;28;20026;-70
2021/04/17 01:31:11;;;;;;;7.80;2.80;;;;;;;7.83;64.39;101914.19;4985971;28;20116;-70
2021/04/17 01:33:41;;;;;;;5.85;2.60;;;;;;;7.76;65.11;101922.66;4992712;28;20030;-70
2021/04/17 01:36:08;;;;;;;8.70;2.93;;;;;;;7.68;65.84;101919.91;4975409;28;20038;-69
2021/04/17 01:38:40;;;;;;;4.57;2.72;;;;;;;7.72;65.86;101912.84;4968765;28;20035;-71
2021/04/17 01:41:08;;;;;;;;;;;;;;;7.69;66.03;101919.63;4990637;28;20027;-70
2021/04/17 01:43:35;;;;;;;5.55;2.47;;;;;;;7.79;65.88;101913.22;4980595;28;19996;-69
2021/04/17 01:46:07;;;;;;;5.20;2.35;;;;;;;7.84;65.27;101915.78;4982734;28;20105;-70
2021/04/17 01:48:33;;;;;;;7.60;2.80;;;;;;;7.85;65.39;101910.13;4991607;28;20169;-69
2021/04/17 01:51:00;;;;;;;6.97;2.83;;;;;;;7.82;65.80;101913.38;4975376;28;20034;-69
2021/04/17 01:53:30;;;;;;;4.75;2.65;;;;;;;7.71;66.19;101909.38;4973689;28;20038;-70
2021/04/17 01:55:57;;;;;;;7.60;2.88;;;;;;;7.67;66.70;101902.25;4986460;28;20062;-70
2021/04/17 01:58:25;;;;;;;5.93;2.78;;;;;;;7.75;66.09;101899.63;4991084;28;20034;-70
2021/04/17 02:00:54;;;;;;;3.88;2.42;;;;;;;7.89;66.26;101908.41;4992039;28;20050;-71
2021/04/17 02:03:20;;;;;;;7.50;3.20;;;;;;;8.08;64.47;101900.97;4969832;28;20050;-71
2021/04/17 02:05:50;;;;;;;9.50;2.97;;;;;;;8.14;64.48;101905.09;4990154;28;20034;-70
2021/04/17 02:08:16;;;;;;;6.45;2.90;;;;;;;7.82;65.99;101902.66;4991359;28;20549;-70
2021/04/17 02:10:44;;;;;;;4.55;2.33;;;;;;;7.74;66.84;101894.59;4988878;28;20023;-70
2021/04/17 02:13:10;;;;;;;8.63;2.92;;;;;;;7.87;66.72;101883.78;4984240;28;20073;-70
2021/04/17 02:15:37;;;;;;;10.98;2.90;;;;;;;7.83;66.43;101893.53;4991887;28;20073;-70
2021/04/17 02:18:22;;;;;;;6.32;2.53;;;;;;;7.98;66.28;101889.69;4991112;28;20026;-70
2021/04/17 02:20:58;;;;;;;5.57;2.47;;;;;;;7.63;67.43;101885.16;4968760;28;20045;-71
2021/04/17 02:23:24;;;;;;;4.80;2.53;;;;;;;7.71;67.52;101885.25;4983829;28;20030;-70
2021/04/17 02:25:50;;;;;;;6.05;3.00;;;;;;;7.70;68.29;101880.19;4990497;28;20026;-71
2021/04/17 02:28:16;;;;;;;4.45;2.78;;;;;;;7.90;67.63;101874.31;4967262;28;20125;-71
2021/04/17 02:30:41;;;;;;;8.38;2.95;;;;;;;7.97;66.75;101864.78;4986189;28;20033;-71
2021/04/17 02:33:07;;;;;;;6.03;2.90;;;;;;;8.00;66.24;101882.13;4991284;28;20093;-71
2021/04/17 02:35:33;;;;;;;5.93;2.78;;;;;;;8.06;66.48;101865.59;4992058;28;20057;-71
2021/04/17 02:37:58;;;;;;;6.57;2.90;;;;;;;8.06;65.95;101876.34;4959352;28;20038;-71
2021/04/17 02:40:24;;;;;;;6.45;2.50;;;;;;;7.87;67.70;101877.63;4991275;28;20027;-70
2021/04/17 02:42:49;;;;;;;6.35;2.95;;;;;;;7.93;67.59;101874.53;4987340;28;20466;-71
2021/04/17 02:45:15;;;;;;;9.80;2.70;;;;;;;8.03;66.71;101874.25;4990814;28;20402;-71
2021/04/17 02:47:40;;;;;;;6.68;2.60;;;;;;;8.06;66.52;101864.81;4973258;28;20049;-71
2021/04/17 02:50:07;;;;;;;9.95;2.78;;;;;;;8.12;66.45;101871.63;4991380;28;20391;-71
2021/04/17 02:52:32;;;;;;;7.35;2.67;;;;;;;7.96;67.70;101865.06;4987479;28;20568;-70
2021/04/17 02:54:57;;;;;;;7.28;2.67;;;;;;;8.07;67.49;101861.03;4990548;28;20051;-70
2021/04/17 02:57:23;;;;;;;6.30;2.65;;;;;;;8.11;67.11;101857.41;4990783;28;20046;-71
2021/04/17 02:59:49;;;;;;;5.93;2.67;;;;;;;8.14;66.63;101850.66;4983516;28;20022;-71
2021/04/17 03:02:14;;;;;;;8.18;2.60;;;;;;;8.22;66.03;101847.22;4969261;28;20411;-71
2021/04/17 03:04:40;;;;;;;8.32;2.35;;;;;;;8.30;65.72;101841.13;4987620;28;20045;-71
2021/04/17 03:07:05;;;;;;;6.07;2.45;;;;;;;7.94;67.60;101848.47;4990318;28;20030;-70
2021/04/17 03:09:31;;;;;;;6.32;2.33;;;;;;;7.91;67.69;101843.75;4987301;28;20029;-70
2021/04/17 03:11:56;;;;;;;6.25;2.30;;;;;;;7.89;68.39;101837.91;4967492;28;20054;-71
2021/04/17 03:14:22;;;;;;;4.32;2.42;;;;;;;7.94;67.73;101843.91;4982998;28;20039;-70
2021/04/17 03:16:47;;;;;;;6.63;2.47;;;;;;;7.87;68.32;101840.88;4984735;28;20045;-71
2021/04/17 03:19:13;;;;;;;6.25;2.50;;;;;;;7.84;68.46;101838.03;4989695;28;20041;-71
2021/04/17 03:21:39;;;;;;;7.35;2.42;;;;;;;7.58;70.24;101839.75;4970194;28;20038;-71
2021/04/17 03:24:04;;;;;;;5.47;2.40;;;;;;;7.79;68.48;101830.09;4990725;28;20056;-71
2021/04/17 03:26:30;;;;;;;8.02;2.80;;;;;;;7.77;69.13;101834.97;4965086;28;20056;-71
2021/04/17 03:28:55;;;;;;;6.22;2.30;;;;;;;7.73;69.31;101839.38;4990118;28;20022;-71
2021/04/17 03:31:21;;;;;;;5.38;2.20;;;;;;;7.55;70.47;101825.06;4991001;28;20030;-70
2021/04/17 03:33:50;;;;;;;4.97;2.10;;;;;;;7.47;70.16;101833.81;4986659;28;20450;-71
2021/04/17 03:36:15;;;;;;;4.75;2.40;;;;;;;7.62;68.96;101836.16;4988269;28;20084;-71
2021/04/17 03:38:41;;;;;;;5.68;2.33;;;;;;;7.61;69.66;101836.44;4990362;28;20038;-71
2021/04/17 03:41:07;;;;;;;6.35;2.38;;;;;;;7.70;68.51;101834.63;4990748;28;20035;-71
2021/04/17 03:43:32;;;;;;;6.25;2.92;;;;;;;7.68;68.44;101834.13;4990981;28;20066;-71
2021/04/17 03:45:58;;;;;;;5.57;2.33;;;;;;;7.59;68.74;101830.63;4986122;28;20041;-71
2021/04/17 03:48:23;;;;;;;5.53;2.30;;;;;;;7.35;70.29;101840.81;4980507;28;20035;-71
2021/04/17 03:50:49;;;;;;;5.25;2.00;;;;;;;7.38;70.10;101842.88;4986056;28;20037;-71
2021/04/17 03:53:15;;;;;;;3.67;2.33;;;;;;;7.43;69.81;101840.91;4987760;28;20105;-71
2021/04/17 03:55:40;;;;;;;5.00;2.33;;;;;;;7.51;69.08;101836.72;4990192;28;20030;-71
2021/04/17 03:58:06;;;;;;;6.57;2.60;;;;;;;7.51;69.02;101832.13;4989896;28;20064;-71
2021/04/17 04:00:31;;;;;;;4.32;2.30;;;;;;;7.41;69.33;101832.38;4991206;28;20054;-71
2021/04/17 04:02:58;;;;;;;3.95;1.95;;;;;;;7.29;70.70;101840.97;4988383;28;20053;-71
2021/04/17 04:05:24;;;;;;;8.07;3.05;;;;;;;7.48;69.61;101837.28;4989196;28;20037;-71
2021/04/17 04:07:49;;;;;;;4.78;2.33;;;;;;;7.10;71.88;101848.34;4990562;28;20491;-71
2021/04/17 04:10:15;;;;;;;6.50;2.67;;;;;;;7.26;71.33;101836.19;4974124;28;20031;-71
2021/04/17 04:12:43;;;;;;;4.43;2.10;;;;;;;7.22;71.42;101837.88;4979289;28;20113;-71
2021/04/17 04:15:11;;;;;;;4.07;2.30;;;;;;;7.20;71.78;101836.63;4984772;28;20040;-70
2021/04/17 04:17:36;;;;;;;6.88;2.80;;;;;;;7.13;72.52;101834.34;4989265;28;20391;-71
2021/04/17 04:20:04;;;;;;;7.47;2.85;;;;;;;7.26;72.26;101835.38;4989456;28;20038;-71
2021/04/17 04:22:31;;;;;;;6.57;2.70;;;;;;;7.43;71.18;101832.06;4992808;28;20049;-71
2021/04/17 04:24:56;;;;;;;6.53;2.53;;;;;;;7.48;71.14;101834.63;4989693;28;20409;-71
2021/04/17 04:27:22;;;;;;;5.85;2.45;;;;;;;7.37;71.16;101836.75;4992945;28;20113;-71
2021/04/17 04:29:48;;;;;;;5.47;2.30;;;;;;;7.33;71.38;101846.50;4972856;28;20035;-71
2021/04/17 04:32:13;;;;;;;4.40;2.47;;;;;;;7.36;70.62;101842.41;4966442;28;20046;-71
2021/04/17 04:34:38;;;;;;;8.65;2.50;;;;;;;7.32;70.31;101834.19;4992887;28;20041;-71
2021/04/17 04:37:04;;;;;;;7.20;2.65;;;;;;;7.35;70.06;101835.47;4990757;28;20053;-71
2021/04/17 04:39:30;;;;;;;6.82;2.72;;;;;;;7.32;70.60;101836.09;4992642;28;20509;-71
2021/04/17 04:41:55;;;;;;;5.70;2.58;;;;;;;7.25;70.90;101834.63;4992545;28;20028;-71
2021/04/17 04:44:21;;;;;;;8.52;2.90;;;;;;;7.47;70.12;101843.78;4988759;28;20058;-71
2021/04/17 04:46:46;;;;;;;8.40;2.83;;;;;;;7.58;69.71;101837.88;4991906;28;20070;-71
2021/04/17 04:49:12;;;;;;;5.57;2.55;;;;;;;7.62;69.57;101841.53;4992711;28;20028;-71
2021/04/17 04:51:37;;;;;;;5.45;2.50;;;;;;;7.53;68.68;101837.19;4994022;28;20140;-71
2021/04/17 04:54:03;;;;;;;8.73;2.70;;;;;;;7.50;69.41;101835.09;4993740;28;20398;-71
2021/04/17 04:56:28;;;;;;;6.63;2.85;;;;;;;7.58;70.22;101831.69;4990935;28;20438;-71
2021/04/17 04:58:54;;;;;;;5.85;2.60;;;;;;;7.57;69.98;101843.53;4984491;28;20646;-71
2021/04/17 05:01:19;;;;;;;6.00;2.10;;;;;;;7.49;70.52;101845.03;4974247;28;20066;-71
2021/04/17 05:03:45;;;;;;;5.15;2.58;;;;;;;7.54;70.67;101838.75;4991232;28;20030;-71
2021/04/17 05:06:10;;;;;;;7.45;2.60;;;;;;;7.43;71.53;101840.09;4993494;28;20038;-71
2021/04/17 05:08:36;;;;;;;6.15;2.80;;;;;;;7.39;72.41;101852.53;4989760;28;20037;-71
2021/04/17 05:11:01;;;;;;;3.20;2.17;;;;;;;7.50;70.94;101840.47;4985359;28;20015;-71
2021/04/17 05:13:27;;;;;;;5.22;2.33;;;;;;;7.49;71.13;101841.56;4976010;28;20034;-71
2021/04/17 05:15:52;;;;;;;3.88;2.53;;;;;;;7.49;72.27;101828.19;4989996;28;20034;-71
2021/04/17 05:18:18;;;;;;;7.00;2.45;;;;;;;7.56;71.98;101836.56;4968609;28;20035;-71
2021/04/17 05:20:44;;;;;;;6.43;2.88;;;;;;;7.73;70.83;101840.16;4993287;28;20169;-71
2021/04/17 05:23:09;;;;;;;5.55;2.70;;;;;;;7.76;70.62;101831.50;4972596;28;20124;-71
2021/04/17 05:25:35;;;;;;;4.43;2.67;;;;;;;7.64;71.34;101841.19;4992860;28;20089;-71
2021/04/17 05:28:00;;;;;;;5.25;2.50;;;;;;;7.58;72.42;101839.75;4973094;28;20027;-71
2021/04/17 05:30:26;;;;;;;9.38;3.20;;;;;;;7.39;72.46;101839.94;4990790;28;20023;-71
2021/04/17 05:32:51;;;;;;;5.60;2.67;;;;;;;7.54;72.71;101838.75;4988581;28;20502;-71
2021/04/17 05:35:17;;;;;;;3.85;2.28;;;;;;;7.24;74.53;101835.69;4980979;28;20057;-71
2021/04/17 05:37:42;;;;;;;7.80;2.83;;;;;;;7.36;75.71;101826.31;4992377;28;20372;-71
2021/04/17 05:40:08;;;;;;;7.07;2.70;;;;;;;7.60;73.81;101829.50;4992916;28;20019;-71
2021/04/17 05:42:34;;;;;;;6.82;2.72;;;;;;;7.68;74.27;101831.47;4987799;28;20387;-71
2021/04/17 05:44:59;;;;;;;8.25;3.00;;;;;;;7.73;74.58;101821.41;4989145;28;20030;-71
2021/04/17 05:47:25;;;;;;;8.27;2.83;;;;;;;7.87;73.76;101819.44;4988106;28;20141;-71
2021/04/17 05:49:51;;;;;;;6.80;2.67;;;;;;;7.81;72.98;101823.34;4981383;28;20023;-71
2021/04/17 05:52:16;;;;;;;4.13;2.55;;;;;;;7.96;73.34;101827.50;4987444;28;20045;-71
2021/04/17 05:54:42;;;;;;;5.20;2.67;;;;;;;8.07;73.04;101823.47;4992636;28;20042;-71
2021/04/17 05:57:07;;;;;;;7.93;3.22;;;;;;;8.07;73.17;101826.16;4991500;28;20073;-71
2021/04/17 05:59:33;;;;;;;4.82;2.75;;;;;;;8.31;72.82;101831.97;4990777;28;20026;-71
2021/04/17 06:01:58;;;;;;;3.75;2.60;;;;;;;8.54;72.22;101835.34;4987408;28;20026;-71
2021/04/17 06:04:24;;;;;;;5.50;2.88;;;;;;;8.46;72.20;101828.84;4989594;28;20034;-71
2021/04/17 06:06:50;;;;;;;7.95;2.78;;;;;;;8.72;70.51;101834.31;4974713;28;20029;-71
2021/04/17 06:09:15;;;;;;;6.35;2.70;;;;;;;8.56;71.50;101838.50;4991796;28;20031;-71
2021/04/17 06:11:41;;;;;;;6.85;3.00;;;;;;;8.64;71.90;101832.38;4992036;28;20034;-71
2021/04/17 06:14:07;;;;;;;5.45;2.65;;;;;;;8.78;71.40;101819.63;4982713;28;20037;-71
2021/04/17 06:16:32;;;;;;;10.38;3.20;;;;;;;8.74;72.25;101803.34;4968165;28;20031;-71
2021/04/17 06:18:58;;;;;;;7.30;2.92;;;;;;;8.75;72.88;101804.16;4985759;28;20120;-71
2021/04/17 06:21:24;;;;;;;6.43;2.97;;;;;;;8.89;71.77;101805.59;4991616;28;20041;-71
2021/04/17 06:23:49;;;;;;;6.10;2.88;;;;;;;8.94;71.72;101804.66;4988977;28;20439;-72
2021/04/17 06:26:14;;;;;;;5.88;3.13;;;;;;;8.96;71.38;101813.97;4986689;28;20034;-71
2021/04/17 06:28:40;;;;;;;7.45;3.08;;;;;;;8.94;71.36;101810.78;4990595;28;20022;-71
2021/04/17 06:31:05;;;;;;;4.22;2.67;;;;;;;8.60;72.77;101812.63;4985846;28;20117;-71
2021/04/17 06:33:31;;;;;;;5.97;2.50;;;;;;;8.59;72.19;101806.50;4991263;28;20027;-71
2021/04/17 06:35:58;;;;;;;5.45;3.10;;;;;;;8.61;73.02;101804.28;4977507;28;20039;-71
2021/04/17 06:38:23;;;;;;;5.15;2.72;;;;;;;8.85;72.24;101810.00;4966472;28;20065;-71
2021/04/17 06:40:52;;;;;;;5.68;2.95;;;;;;;9.07;71.70;101809.88;4991934;28;20034;-71
2021/04/17 06:43:21;;;;;;;7.82;2.55;;;;;;;9.13;70.98;101817.78;4987502;28;20056;-71
2021/04/17 06:45:48;;;;;;;5.07;2.38;;;;;;;9.01;71.60;101821.88;4986872;28;20057;-71
2021/04/17 06:48:16;;;;;;;6.00;3.00;;;;;;;8.95;72.42;101812.38;4982716;28;20487;-72
2021/04/17 06:50:42;;;;;;;10.45;2.80;;;;;;;8.98;73.04;101810.97;4991276;28;20129;-71
2021/04/17 06:53:10;;;;;;;6.22;3.20;;;;;;;9.05;72.24;101801.34;4991608;28;20246;-71
2021/04/17 06:55:36;;;;;;;5.60;2.78;;;;;;;9.06;72.14;101802.09;4980691;28;20036;-71
2021/04/17 06:58:02;;;;;;;7.95;2.92;;;;;;;8.98;73.34;101803.69;4970253;28;20038;-71
2021/04/17 07:00:28;;;;;;;8.48;3.10;;;;;;;9.23;72.63;101810.19;4988720;28;20042;-71
2021/04/17 07:02:54;;;;;;;5.88;2.90;;;;;;;9.18;72.58;101804.97;5025286;22;20041;-74
2021/04/17 07:05:19;;;;;;;9.63;3.40;;;;;;;9.40;72.16;101787.88;4972226;28;20038;-74
2021/04/17 07:07:45;;;;;;;5.88;3.05;;;;;;;9.45;72.02;101793.06;4991040;28;20052;-75
2021/04/17 07:10:12;;;;;;;6.32;2.80;;;;;;;9.61;72.43;101796.84;5001413;28;20065;-75
2021/04/17 07:12:37;;;;;;;6.95;2.80;;;;;;;9.91;71.30;101793.16;4978805;28;20750;-75
2021/04/17 07:15:08;;;;;;;6.68;3.00;;;;;;;9.96;71.05;101799.16;4989531;28;20105;-75
2021/04/17 07:17:36;;;;;;;5.40;3.10;;;;;;;10.34;70.37;101798.34;4989553;28;20044;-74
2021/04/17 07:20:05;;;;;;;5.75;2.95;;;;;;;10.78;68.73;101795.88;4990011;28;20104;-75
2021/04/17 07:22:38;;;;;;;8.23;3.00;;;;;;;11.31;67.19;101794.34;4971695;28;20462;-74
2021/04/17 07:25:07;;;;;;;8.02;3.13;;;;;;;11.76;66.14;101787.13;4977661;28;20117;-75
2021/04/17 07:27:46;;;;;;;6.35;2.83;;;;;;;12.28;63.86;101787.28;4973182;28;20391;-75
2021/04/17 07:30:15;;;;;;;5.38;2.58;;;;;;;12.73;59.47;101779.00;4972365;28;20022;-76
2021/04/17 07:32:41;;;;;;;7.97;3.10;;;;;;;13.00;58.55;101776.38;4980424;28;20050;-74
2021/04/17 07:35:11;;;;;;;9.88;2.80;;;;;;;13.00;57.67;101778.28;4981893;28;20031;-74
2021/04/17 07:37:38;;;;;;;6.47;2.95;;;;;;;12.81;56.30;101778.09;4972327;28;20030;-75
2021/04/17 07:40:33;;;;;;;5.43;2.72;;;;;;;12.52;58.46;101785.34;4971363;28;20039;-74
2021/04/17 07:42:59;;;;;;;4.30;2.75;;;;;;;12.34;58.45;101777.81;4960342;28;20463;-74
2021/04/17 07:45:28;;;;;;;5.18;2.78;;;;;;;12.41;59.39;101770.72;4989248;28;20117;-75
2021/04/17 07:47:59;;;;;;;6.78;2.83;;;;;;;12.61;59.43;101780.63;4989564;28;20042;-75
2021/04/17 07:50:35;;;;;;;8.20;2.85;;;;;;;12.94;57.11;101776.94;4987509;28;20038;-72
2021/04/17 07:53:01;;;;;;;4.30;2.67;;;;;;;12.62;57.07;101773.28;4972712;28;20446;-75
2021/04/17 07:55:34;;;;;;;6.13;2.70;;;;;;;12.83;58.59;101765.03;4973545;28;20054;-75
2021/04/17 07:58:01;;;;;;;7.95;2.50;;;;;;;13.13;57.15;101775.22;4979141;28;20045;-74
2021/04/17 08:00:28;;;;;;;4.72;2.40;;;;;;;13.41;56.86;101767.09;4960858;28;20387;-75
2021/04/17 08:02:56;;;;;;;5.38;2.40;;;;;;;13.71;55.68;101768.25;4992168;28;20093;-73
2021/04/17 08:05:23;;;;;;;4.28;2.65;;;;;;;13.81;55.25;101765.06;4990034;28;20026;-75
2021/04/17 08:07:50;;;;;;;7.13;2.13;;;;;;;14.05;53.38;101759.44;4969103;28;20030;-75
2021/04/17 08:10:17;;;;;;;5.18;1.88;;;;;;;14.43;51.12;101773.16;4975776;28;20495;-74
2021/04/17 08:12:43;;;;;;;9.65;2.20;;;;;;;14.23;51.01;101768.00;4988385;28;20066;-75
2021/04/17 08:15:12;;;;;;;5.53;1.85;;;;;;;14.81;50.03;101779.78;4973562;28;20044;-75
2021/04/17 08:17:39;;;;;;;5.22;1.88;;;;;;;15.03;49.46;101765.53;4986042;28;20105;-73
2021/04/17 08:20:06;;;;;;;5.35;2.13;;;;;;;14.20;48.95;101772.22;4986169;28;20038;-75
2021/04/17 08:22:32;;;;;;;5.18;1.92;;;;;;;14.20;49.95;101776.84;4991630;28;20030;-73
2021/04/17 08:24:59;;;;;;;2.80;1.90;;;;;;;14.65;49.19;101765.50;4988630;28;20073;-74
2021/04/17 08:27:29;;;;;;;4.35;1.60;;;;;;;15.06;47.46;101770.25;4984611;28;20035;-73
2021/04/17 08:29:56;;;;;;;3.35;1.30;;;;;;;15.32;45.52;101767.66;4965735;28;20514;-75
2021/04/17 08:32:29;;;;;;;3.05;1.30;;;;;;;15.66;43.03;101772.19;4973477;28;20110;-74
2021/04/17 08:35:12;;;;;;;4.10;1.20;;;;;;;15.89;42.30;101767.53;4975240;28;20027;-73
2021/04/17 08:37:50;;;;;;;3.15;1.33;;;;;;;15.71;43.15;101771.91;4976071;28;20034;-75
2021/04/17 08:40:36;;;;;;;3.15;1.42;;;;;;;15.53;43.46;101778.94;4961332;28;20026;-75
2021/04/17 08:43:12;;;;;;;4.88;1.80;;;;;;;15.36;42.89;101771.22;4973670;28;20066;-75
2021/04/17 08:46:02;;;;;;;2.70;1.05;;;;;;;15.23;44.04;101764.38;4972742;28;20027;-74
2021/04/17 08:48:54;;;;;;;4.25;1.25;;;;;;;15.39;43.03;101767.78;4975215;28;20117;-75
2021/04/17 08:51:22;;;;;;;;;;;;;;;15.98;43.45;101767.31;4980515;28;20480;-75
2021/04/17 08:53:49;;;;;;;1.92;1.20;;;;;;;16.22;43.57;101761.47;4992904;28;19921;-75
2021/04/17 08:56:15;;;;;;;2.33;1.67;;;;;;;16.58;41.96;101760.88;4991512;28;20100;-75
2021/04/17 08:58:40;;;;;;;2.67;1.38;;;;;;;16.63;42.42;101760.56;4970685;28;20027;-75
2021/04/17 09:01:09;;;;;;;3.00;1.77;;;;;;;16.49;42.98;101760.34;4986878;28;20565;-75
2021/04/17 09:03:47;;;;;;;3.47;1.55;;;;;;;16.57;43.90;101751.13;4992815;28;20057;-75
2021/04/17 09:06:19;;;;;;;7.00;1.90;;;;;;;16.47;43.22;101759.13;4974808;28;20046;-74
2021/04/17 09:09:04;;;;;;;;;;;;;;;16.65;44.08;101769.13;4977401;28;20030;-75
2021/04/17 09:11:36;;;;;;;6.63;1.75;;;;;;;17.03;43.91;101757.94;4982887;28;19924;-73
2021/04/17 09:14:32;;;;;;;5.20;1.85;;;;;;;17.24;42.19;101746.53;4967125;28;20035;-74
2021/04/17 09:17:07;;;;;;;2.65;1.40;;;;;;;17.36;42.07;101748.22;4960042;28;20038;-73
2021/04/17 09:19:38;;;;;;;3.55;1.30;;;;;;;17.59;42.05;101748.88;4986681;28;20501;-74
2021/04/17 09:22:32;;;;;;;2.22;1.50;;;;;;;17.66;43.07;101752.44;4983893;28;20053;-73
2021/04/17 09:25:03;;;;;;;3.33;1.52;;;;;;;17.53;42.36;101758.53;4991097;28;20037;-75
2021/04/17 09:27:32;;;;;;;2.85;1.48;;;;;;;17.93;42.44;101764.75;4983462;28;20073;-73
2021/04/17 09:30:03;;;;;;;6.45;1.65;;;;;;;17.74;41.63;101764.97;4976071;28;20041;-73
2021/04/17 09:32:32;;;;;;;5.40;1.50;;;;;;;18.15;41.62;101760.25;4978937;28;20046;-72
2021/04/17 09:34:58;;;;;;;2.58;1.35;;;;;;;17.93;41.90;101756.56;4961761;28;20053;-73
2021/04/17 09:37:31;;;;;;;2.55;1.20;;;;;;;17.86;41.08;101753.78;4989364;28;20044;-73
2021/04/17 09:39:57;;;;;;;2.10;1.30;;;;;;;17.75;42.27;101743.97;4981172;28;20054;-73
2021/04/17 09:42:41;;;;;;;2.33;1.38;;;;;;;17.67;41.42;101745.81;4979884;28;20068;-73
2021/04/17 09:45:12;;;;;;;2.33;1.35;;;;;;;17.87;41.24;101751.81;4948268;28;20046;-72
2021/04/17 09:47:55;;;;;;;3.25;1.40;;;;;;;18.38;41.58;101735.44;4974139;28;20069;-73
2021/04/17 09:50:22;;;;;;;5.10;1.40;;;;;;;18.61;41.07;101744.97;4987148;28;20022;-73
2021/04/17 09:52:48;;;;;;;3.83;1.70;;;;;;;18.67;40.83;101748.13;4985113;28;20036;-73
2021/04/17 09:55:13;;;;;;;4.05;1.35;;;;;;;18.86;40.47;101751.31;4970945;28;20038;-73
2021/04/17 09:57:45;;;;;;;3.58;1.55;;;;;;;18.85;40.81;101749.00;4973270;28;20277;-73
2021/04/17 10:00:11;;;;;;;4.47;1.75;;;;;;;19.08;40.54;101743.22;4975162;28;20040;-73
2021/04/17 10:02:42;;;;;;;1.90;1.50;;;;;;;19.29;40.14;101738.59;4973756;28;20422;-73
2021/04/17 10:05:08;;;;;;;3.85;1.65;;;;;;;19.28;39.75;101731.53;4974701;28;20032;-73
2021/04/17 10:07:45;;;;;;;2.83;1.73;;;;;;;19.24;40.45;101733.50;4975322;28;20471;-73
2021/04/17 10:10:11;;;;;;;2.97;1.45;;;;;;;19.30;40.41;101723.75;4979238;28;20030;-72
2021/04/17 10:12:51;;;;;;;4.35;1.67;;;;;;;19.45;39.94;101721.88;4971960;28;20506;-73
2021/04/17 10:15:26;;;;;;;5.10;1.50;;;;;;;19.36;38.09;101726.91;4970376;28;20026;-74
2021/04/17 10:18:00;;;;;;;5.18;1.35;;;;;;;19.51;37.60;101726.53;4972181;28;20031;-73
2021/04/17 10:20:27;;;;;;;2.00;1.10;;;;;;;19.59;37.25;101714.44;4987486;28;20031;-73
2021/04/17 10:23:00;;;;;;;3.95;0.85;;;;;;;19.81;35.68;101726.16;4982035;28;20033;-74
2021/04/17 10:25:32;;;;;;;3.50;1.00;;;;;;;19.49;35.45;101722.66;4982516;28;20086;-74
2021/04/17 10:28:21;;;;;;;2.88;1.10;;;;;;;19.71;35.58;101714.06;4967545;28;20090;-73
2021/04/17 10:30:55;;;;;;;2.35;0.90;;;;;;;19.18;35.70;101713.19;4986821;28;20088;-74
2021/04/17 10:33:26;;;;;;;5.68;1.10;;;;;;;19.31;36.55;101708.94;4980878;28;20034;-74
2021/04/17 10:35:55;;;;;;;5.65;1.30;;;;;;;19.16;37.49;101712.03;4981469;28;20046;-74
2021/04/17 10:38:26;;;;;;;4.03;1.10;;;;;;;19.21;37.58;101706.16;4982043;28;20037;-74
2021/04/17 10:40:52;;;;;;;;;;;;;;;19.72;37.16;101712.88;4984571;28;20317;-73
2021/04/17 10:43:18;;;;;;;2.45;1.15;;;;;;;19.61;35.69;101708.59;4985705;28;19913;-73
2021/04/17 10:45:45;;;;;;;5.20;1.10;;;;;;;19.60;36.83;101701.56;4973408;28;20053;-73
2021/04/17 10:48:14;;;;;;;4.82;1.13;;;;;;;19.55;36.86;101701.97;4984026;28;20139;-73
2021/04/17 10:50:52;;;;;;;3.58;1.10;;;;;;;19.45;36.60;101708.97;4967996;28;20041;-73
2021/04/17 10:53:24;;;;;;;2.63;1.13;;;;;;;19.19;36.31;101703.84;4985473;28;20410;-71
2021/04/17 10:55:59;;;;;;;2.85;1.17;;;;;;;19.20;37.71;101694.44;4960679;28;20076;-73
2021/04/17 10:58:31;;;;;;;2.70;0.95;;;;;;;18.81;38.10;101688.88;4978759;28;20034;-72
2021/04/17 11:01:09;;;;;;;1.38;0.80;;;;;;;19.31;37.38;101700.75;4968954;28;20038;-73
2021/04/17 11:03:43;;;;;;;2.00;0.98;;;;;;;19.77;36.75;101690.63;4965943;28;20034;-73
2021/04/17 11:06:13;;;;;;;2.60;1.10;;;;;;;19.08;35.84;101692.09;4977325;28;20076;-73
2021/04/17 11:08:39;;;;;;;2.58;0.80;;;;;;;19.07;36.83;101681.56;4968197;28;20450;-74
2021/04/17 11:11:20;;;;;;;3.55;1.00;;;;;;;18.68;36.58;101695.06;4964267;28;20039;-74
2021/04/17 11:13:46;;;;;;;9.23;1.38;;;;;;;18.76;38.54;101697.47;4980938;28;20100;-73
2021/04/17 11:16:13;;;;;;;5.10;1.20;;;;;;;19.01;37.42;101699.50;4975523;28;20049;-72
2021/04/17 11:18:44;;;;;;;3.25;1.00;;;;;;;18.87;38.58;101687.34;4982358;28;20101;-73
2021/04/17 11:21:12;;;;;;;5.37;1.30;;;;;;;18.74;38.37;101699.78;4985880;28;20112;-73
2021/04/17 11:23:47;;;;;;;4.65;1.40;;;;;;;18.89;38.05;101692.44;4982089;28;20070;-73
2021/04/17 11:26:18;;;;;;;3.47;1.08;;;;;;;18.91;36.84;101692.84;4987175;28;20509;-73
2021/04/17 11:28:46;;;;;;;7.60;1.17;;;;;;;19.17;37.83;101681.59;4987451;28;20530;-73
2021/04/17 11:31:16;;;;;;;4.10;1.35;;;;;;;19.53;37.67;101683.22;4985153;28;20042;-73
2021/04/17 11:33:44;;;;;;;3.97;1.25;;;;;;;19.91;37.15;101681.63;4988807;28;20026;-73
2021/04/17 11:36:09;;;;;;;3.20;1.50;;;;;;;20.27;36.85;101683.16;4985707;28;20125;-73
2021/04/17 11:38:35;;;;;;;6.38;1.60;;;;;;;20.15;37.39;101688.25;4988844;28;20586;-72